createdAt,value
2024-01-26T00:01:31.430Z,9.3
2024-01-26T00:11:31.485Z,9.4
2024-01-26T00:21:31.776Z,9.4
2024-01-26T00:31:31.908Z,9.4
2024-01-26T00:41:32.098Z,9.3
2024-01-26T00:51:32.352Z,9.4
2024-01-26T01:01:32.530Z,9.4
2024-01-26T01:21:32.931Z,9.4
2024-01-26T01:31:33.070Z,9.4
2024-01-26T01:41:33.330Z,9.5
2024-01-26T01:51:33.526Z,9.6
2024-01-26T02:01:33.701Z,9.7
2024-01-26T02:11:33.940Z,9.8
2024-01-26T02:21:34.155Z,9.9
2024-01-26T02:31:34.338Z,10
2024-01-26T02:41:34.492Z,10
2024-01-26T02:51:34.668Z,10
2024-01-26T03:01:34.886Z,10
2024-01-26T03:11:35.077Z,10
2024-01-26T03:21:35.284Z,10
2024-01-26T03:31:35.510Z,10
2024-01-26T03:41:35.698Z,10
2024-01-26T04:01:36.054Z,10
2024-01-26T04:11:36.298Z,10
2024-01-26T04:21:36.477Z,10
2024-01-26T04:31:36.727Z,10
2024-01-26T04:41:36.869Z,10
2024-01-26T04:51:37.062Z,10
2024-01-26T05:01:37.249Z,10
2024-01-26T05:11:37.454Z,10.2
2024-01-26T05:21:37.646Z,10.3
2024-01-26T05:31:37.876Z,10.4
2024-01-26T05:41:38.088Z,10.4
2024-01-26T05:51:38.256Z,10.4
2024-01-26T06:01:38.492Z,10.4
2024-01-26T06:11:38.667Z,10.5
2024-01-26T06:21:38.980Z,10.5
2024-01-26T06:31:39.099Z,10.5
2024-01-26T06:41:39.247Z,10.5
2024-01-26T07:01:39.677Z,10.3
2024-01-26T07:11:39.860Z,10.2
2024-01-26T07:21:40.008Z,10.2
2024-01-26T07:31:40.190Z,10.1
2024-01-26T07:41:40.430Z,10.1
2024-01-26T07:51:40.606Z,10
2024-01-26T08:01:40.797Z,10
2024-01-26T08:21:41.223Z,10
2024-01-26T08:51:41.824Z,10.4
2024-01-26T09:01:42.029Z,10.7
2024-01-26T09:21:42.425Z,11
2024-01-26T09:31:42.631Z,11.1
2024-01-26T09:41:48.917Z,11.1
2024-01-26T09:51:43.049Z,11.1
2024-01-26T10:01:43.393Z,11.3
2024-01-26T10:11:43.462Z,11.2
2024-01-26T10:21:45.051Z,11.2
2024-01-26T10:31:43.801Z,11.3
2024-01-26T10:41:44.053Z,11.3
2024-01-26T10:51:44.267Z,11.1
2024-01-26T11:01:44.452Z,10.6
2024-01-26T11:11:44.617Z,10
2024-01-26T11:21:44.840Z,8.9
2024-01-26T11:31:45.018Z,8.6
2024-01-26T11:41:45.209Z,9
2024-01-26T11:51:45.418Z,9.5
2024-01-26T12:01:45.616Z,9.9
2024-01-26T12:11:45.839Z,10
2024-01-26T12:21:46.028Z,9.8
2024-01-26T12:31:46.266Z,9.5
2024-01-26T12:41:46.469Z,9.5
2024-01-26T12:51:46.581Z,9.7
2024-01-26T13:11:47.033Z,9.4
2024-01-26T13:21:47.262Z,9.4
2024-01-26T13:41:47.595Z,9.1
2024-01-26T13:51:47.786Z,9
2024-01-26T14:01:48.057Z,8.8
2024-01-26T14:11:48.220Z,8.7
2024-01-26T14:21:48.375Z,8.7
2024-01-26T14:31:48.575Z,8.6
2024-01-26T14:51:48.986Z,8.6
2024-01-26T15:01:49.200Z,8.4
2024-01-26T15:11:49.412Z,8.4
2024-01-26T15:31:49.789Z,8.3
2024-01-26T15:41:49.998Z,8.1
2024-01-26T15:51:50.176Z,8.1
2024-01-26T16:01:50.406Z,8
2024-01-26T16:11:50.599Z,8
2024-01-26T16:21:50.770Z,7.9
2024-01-26T16:31:50.973Z,7.8
2024-01-26T16:41:51.214Z,7.8
2024-01-26T16:51:51.376Z,7.7
2024-01-26T17:01:51.566Z,7.6
2024-01-26T17:11:51.824Z,7.5
2024-01-26T17:21:51.990Z,7.5
2024-01-26T17:41:52.466Z,7.2
2024-01-26T17:51:52.591Z,7.1
2024-01-26T18:01:52.792Z,7
2024-01-26T18:11:52.999Z,6.9
2024-01-26T18:21:53.204Z,6.9
2024-01-26T18:31:53.419Z,6.8
2024-01-26T18:41:53.672Z,6.7
2024-01-26T18:51:53.796Z,6.5
2024-01-26T19:01:53.988Z,6.4
2024-01-26T19:11:54.244Z,6.3
2024-01-26T19:21:54.446Z,6.1
2024-01-26T19:31:56.173Z,5.9
2024-01-26T19:41:54.860Z,5.8
2024-01-26T19:51:55.032Z,5.6
2024-01-26T20:01:55.216Z,5.5
2024-01-26T20:11:55.418Z,5.4
2024-01-26T20:21:55.620Z,5.3
2024-01-26T20:31:55.805Z,5.1
2024-01-26T20:51:56.294Z,4.9
2024-01-26T21:01:56.416Z,4.9
2024-01-26T21:11:56.685Z,4.8
2024-01-26T21:21:56.825Z,4.8
2024-01-26T21:31:57.056Z,4.8
2024-01-26T21:41:57.251Z,4.7
2024-01-26T21:51:58.123Z,4.6
2024-01-26T22:11:57.837Z,4.3
2024-01-26T22:21:58.069Z,4.2
2024-01-26T22:31:58.253Z,4.1
2024-01-26T22:41:58.462Z,4.1
2024-01-26T22:51:58.693Z,4
2024-01-26T23:01:58.876Z,4
2024-01-26T23:11:59.093Z,3.9
2024-01-26T23:21:59.280Z,3.8
2024-01-26T23:41:59.677Z,3.7
2024-01-26T23:51:59.898Z,3.6
